sensor_id;sensor_type;location;lat;lon;timestamp;P1;durP1;ratioP1;P2;durP2;ratioP2
49029;SDS011;43337;52.070;4.508;2023-06-14T00:02:00;6.75;;;2.55;;
49029;SDS011;43337;52.070;4.508;2023-06-14T00:04:26;7.20;;;2.83;;
49029;SDS011;43337;52.070;4.508;2023-06-14T00:06:51;5.97;;;2.80;;
49029;SDS011;43337;52.070;4.508;2023-06-14T00:09:17;8.18;;;2.28;;
49029;SDS011;43337;52.070;4.508;2023-06-14T00:11:43;6.13;;;2.95;;
49029;SDS011;43337;52.070;4.508;2023-06-14T00:14:09;4.07;;;2.50;;
49029;SDS011;43337;52.070;4.508;2023-06-14T00:16:35;5.57;;;2.50;;
49029;SDS011;43337;52.070;4.508;2023-06-14T00:19:02;4.72;;;2.38;;
49029;SDS011;43337;52.070;4.508;2023-06-14T00:21:30;4.97;;;2.45;;
49029;SDS011;43337;52.070;4.508;2023-06-14T00:23:57;5.47;;;3.05;;
49029;SDS011;43337;52.070;4.508;2023-06-14T00:26:23;4.35;;;2.38;;
49029;SDS011;43337;52.070;4.508;2023-06-14T00:28:48;6.97;;;2.95;;
49029;SDS011;43337;52.070;4.508;2023-06-14T00:31:14;6.80;;;2.40;;
49029;SDS011;43337;52.070;4.508;2023-06-14T00:33:39;5.85;;;2.85;;
49029;SDS011;43337;52.070;4.508;2023-06-14T00:36:05;5.88;;;2.55;;
49029;SDS011;43337;52.070;4.508;2023-06-14T00:38:30;9.98;;;2.78;;
49029;SDS011;43337;52.070;4.508;2023-06-14T00:40:55;5.88;;;2.45;;
49029;SDS011;43337;52.070;4.508;2023-06-14T00:43:21;5.80;;;2.50;;
49029;SDS011;43337;52.070;4.508;2023-06-14T00:45:46;6.38;;;2.80;;
49029;SDS011;43337;52.070;4.508;2023-06-14T00:48:11;6.28;;;2.80;;
49029;SDS011;43337;52.070;4.508;2023-06-14T00:50:38;5.03;;;2.67;;
49029;SDS011;43337;52.070;4.508;2023-06-14T00:53:05;7.43;;;2.88;;
49029;SDS011;43337;52.070;4.508;2023-06-14T00:55:31;7.45;;;3.17;;
49029;SDS011;43337;52.070;4.508;2023-06-14T00:57:58;4.93;;;2.55;;
49029;SDS011;43337;52.070;4.508;2023-06-14T01:00:23;9.55;;;3.22;;
49029;SDS011;43337;52.070;4.508;2023-06-14T01:02:49;5.70;;;2.22;;
49029;SDS011;43337;52.070;4.508;2023-06-14T01:05:17;11.60;;;2.78;;
49029;SDS011;43337;52.070;4.508;2023-06-14T01:07:46;5.70;;;3.00;;
49029;SDS011;43337;52.070;4.508;2023-06-14T01:15:46;5.55;;;2.58;;
49029;SDS011;43337;52.070;4.508;2023-06-14T01:18:12;5.30;;;2.58;;
49029;SDS011;43337;52.070;4.508;2023-06-14T01:20:44;8.02;;;2.50;;
49029;SDS011;43337;52.070;4.508;2023-06-14T01:23:14;7.32;;;2.50;;
49029;SDS011;43337;52.070;4.508;2023-06-14T01:25:41;7.13;;;2.65;;
49029;SDS011;43337;52.070;4.508;2023-06-14T01:28:09;9.15;;;2.70;;
49029;SDS011;43337;52.070;4.508;2023-06-14T01:30:39;7.38;;;2.33;;
49029;SDS011;43337;52.070;4.508;2023-06-14T01:33:11;5.22;;;2.20;;
49029;SDS011;43337;52.070;4.508;2023-06-14T01:35:38;4.78;;;2.42;;
49029;SDS011;43337;52.070;4.508;2023-06-14T01:38:04;4.97;;;2.30;;
49029;SDS011;43337;52.070;4.508;2023-06-14T01:40:31;6.10;;;2.45;;
49029;SDS011;43337;52.070;4.508;2023-06-14T01:42:59;9.13;;;2.72;;
49029;SDS011;43337;52.070;4.508;2023-06-14T01:45:26;6.18;;;2.75;;
49029;SDS011;43337;52.070;4.508;2023-06-14T01:47:53;10.48;;;3.08;;
49029;SDS011;43337;52.070;4.508;2023-06-14T01:50:20;6.70;;;2.60;;
49029;SDS011;43337;52.070;4.508;2023-06-14T01:52:45;8.20;;;2.80;;
49029;SDS011;43337;52.070;4.508;2023-06-14T01:55:10;6.88;;;3.03;;
49029;SDS011;43337;52.070;4.508;2023-06-14T01:57:36;7.10;;;2.55;;
49029;SDS011;43337;52.070;4.508;2023-06-14T02:00:02;5.15;;;2.60;;
49029;SDS011;43337;52.070;4.508;2023-06-14T02:02:28;7.32;;;2.75;;
49029;SDS011;43337;52.070;4.508;2023-06-14T02:04:54;7.70;;;2.60;;
49029;SDS011;43337;52.070;4.508;2023-06-14T02:07:22;6.80;;;2.90;;
49029;SDS011;43337;52.070;4.508;2023-06-14T02:09:47;10.45;;;3.38;;
49029;SDS011;43337;52.070;4.508;2023-06-14T02:12:13;7.55;;;2.80;;
49029;SDS011;43337;52.070;4.508;2023-06-14T02:14:38;11.25;;;3.00;;
49029;SDS011;43337;52.070;4.508;2023-06-14T02:17:04;10.75;;;2.97;;
49029;SDS011;43337;52.070;4.508;2023-06-14T02:19:31;7.40;;;3.00;;
49029;SDS011;43337;52.070;4.508;2023-06-14T02:21:57;5.65;;;2.67;;
49029;SDS011;43337;52.070;4.508;2023-06-14T02:24:22;6.20;;;3.00;;
49029;SDS011;43337;52.070;4.508;2023-06-14T02:26:48;6.88;;;3.88;;
49029;SDS011;43337;52.070;4.508;2023-06-14T02:29:14;11.13;;;3.28;;
49029;SDS011;43337;52.070;4.508;2023-06-14T02:31:40;7.95;;;3.00;;
49029;SDS011;43337;52.070;4.508;2023-06-14T02:34:06;8.50;;;3.30;;
49029;SDS011;43337;52.070;4.508;2023-06-14T02:36:34;8.00;;;2.88;;
49029;SDS011;43337;52.070;4.508;2023-06-14T02:38:59;7.55;;;2.63;;
49029;SDS011;43337;52.070;4.508;2023-06-14T02:41:25;9.65;;;2.97;;
49029;SDS011;43337;52.070;4.508;2023-06-14T02:43:51;11.13;;;3.60;;
49029;SDS011;43337;52.070;4.508;2023-06-14T02:46:17;6.82;;;3.03;;
49029;SDS011;43337;52.070;4.508;2023-06-14T02:48:43;8.18;;;3.17;;
49029;SDS011;43337;52.070;4.508;2023-06-14T02:51:08;7.13;;;2.80;;
49029;SDS011;43337;52.070;4.508;2023-06-14T02:53:34;6.20;;;2.97;;
49029;SDS011;43337;52.070;4.508;2023-06-14T02:56:01;9.23;;;3.20;;
49029;SDS011;43337;52.070;4.508;2023-06-14T02:58:28;10.13;;;3.42;;
49029;SDS011;43337;52.070;4.508;2023-06-14T03:00:54;7.03;;;3.10;;
49029;SDS011;43337;52.070;4.508;2023-06-14T03:03:19;8.82;;;3.05;;
49029;SDS011;43337;52.070;4.508;2023-06-14T03:05:47;7.22;;;3.10;;
49029;SDS011;43337;52.070;4.508;2023-06-14T03:08:14;5.82;;;2.80;;
49029;SDS011;43337;52.070;4.508;2023-06-14T03:10:48;9.00;;;3.03;;
49029;SDS011;43337;52.070;4.508;2023-06-14T03:13:14;7.65;;;3.25;;
49029;SDS011;43337;52.070;4.508;2023-06-14T03:15:46;5.95;;;2.63;;
49029;SDS011;43337;52.070;4.508;2023-06-14T03:18:12;6.47;;;3.38;;
49029;SDS011;43337;52.070;4.508;2023-06-14T03:20:40;7.57;;;3.05;;
49029;SDS011;43337;52.070;4.508;2023-06-14T03:23:06;7.60;;;2.90;;
49029;SDS011;43337;52.070;4.508;2023-06-14T03:25:31;8.95;;;2.97;;
49029;SDS011;43337;52.070;4.508;2023-06-14T03:28:00;9.98;;;2.90;;
49029;SDS011;43337;52.070;4.508;2023-06-14T03:30:32;8.93;;;2.90;;
49029;SDS011;43337;52.070;4.508;2023-06-14T03:32:58;7.40;;;2.70;;
49029;SDS011;43337;52.070;4.508;2023-06-14T03:35:26;6.97;;;2.75;;
49029;SDS011;43337;52.070;4.508;2023-06-14T03:37:52;9.55;;;2.78;;
49029;SDS011;43337;52.070;4.508;2023-06-14T03:40:17;8.27;;;2.70;;
49029;SDS011;43337;52.070;4.508;2023-06-14T03:42:44;5.82;;;2.90;;
49029;SDS011;43337;52.070;4.508;2023-06-14T03:45:10;8.60;;;2.78;;
49029;SDS011;43337;52.070;4.508;2023-06-14T03:47:35;5.20;;;2.60;;
49029;SDS011;43337;52.070;4.508;2023-06-14T03:50:04;7.60;;;2.58;;
49029;SDS011;43337;52.070;4.508;2023-06-14T03:52:30;7.13;;;3.05;;
49029;SDS011;43337;52.070;4.508;2023-06-14T03:54:56;6.70;;;2.42;;
49029;SDS011;43337;52.070;4.508;2023-06-14T03:57:22;6.95;;;3.40;;
49029;SDS011;43337;52.070;4.508;2023-06-14T03:59:48;6.22;;;2.92;;
49029;SDS011;43337;52.070;4.508;2023-06-14T04:02:14;4.53;;;2.50;;
49029;SDS011;43337;52.070;4.508;2023-06-14T04:04:41;7.53;;;2.83;;
49029;SDS011;43337;52.070;4.508;2023-06-14T04:07:09;8.75;;;2.92;;
49029;SDS011;43337;52.070;4.508;2023-06-14T04:09:36;10.38;;;2.83;;
49029;SDS011;43337;52.070;4.508;2023-06-14T04:12:02;5.95;;;2.53;;
49029;SDS011;43337;52.070;4.508;2023-06-14T04:14:28;5.30;;;2.40;;
49029;SDS011;43337;52.070;4.508;2023-06-14T04:16:53;4.65;;;2.40;;
49029;SDS011;43337;52.070;4.508;2023-06-14T04:19:19;13.35;;;2.70;;
49029;SDS011;43337;52.070;4.508;2023-06-14T04:21:44;6.53;;;2.38;;
49029;SDS011;43337;52.070;4.508;2023-06-14T04:24:09;6.22;;;2.60;;
49029;SDS011;43337;52.070;4.508;2023-06-14T04:26:41;5.70;;;2.30;;
49029;SDS011;43337;52.070;4.508;2023-06-14T04:29:10;9.57;;;2.67;;
49029;SDS011;43337;52.070;4.508;2023-06-14T04:31:42;5.40;;;2.88;;
49029;SDS011;43337;52.070;4.508;2023-06-14T04:34:09;6.05;;;2.63;;
49029;SDS011;43337;52.070;4.508;2023-06-14T04:36:41;5.38;;;2.72;;
49029;SDS011;43337;52.070;4.508;2023-06-14T04:39:14;4.38;;;2.25;;
49029;SDS011;43337;52.070;4.508;2023-06-14T04:41:40;7.95;;;2.47;;
49029;SDS011;43337;52.070;4.508;2023-06-14T04:44:06;5.43;;;2.65;;
49029;SDS011;43337;52.070;4.508;2023-06-14T04:46:32;8.38;;;2.75;;
49029;SDS011;43337;52.070;4.508;2023-06-14T04:48:57;4.75;;;2.33;;
49029;SDS011;43337;52.070;4.508;2023-06-14T04:51:27;8.73;;;2.63;;
49029;SDS011;43337;52.070;4.508;2023-06-14T04:53:57;4.38;;;2.28;;
49029;SDS011;43337;52.070;4.508;2023-06-14T04:56:23;4.82;;;2.20;;
49029;SDS011;43337;52.070;4.508;2023-06-14T04:58:50;7.57;;;2.47;;
49029;SDS011;43337;52.070;4.508;2023-06-14T05:01:17;5.28;;;2.47;;
49029;SDS011;43337;52.070;4.508;2023-06-14T05:03:43;7.57;;;2.40;;
49029;SDS011;43337;52.070;4.508;2023-06-14T05:06:10;7.78;;;2.90;;
49029;SDS011;43337;52.070;4.508;2023-06-14T05:08:36;10.77;;;3.80;;
49029;SDS011;43337;52.070;4.508;2023-06-14T05:11:02;6.72;;;2.60;;
49029;SDS011;43337;52.070;4.508;2023-06-14T05:13:27;5.22;;;2.10;;
49029;SDS011;43337;52.070;4.508;2023-06-14T05:15:53;10.25;;;2.50;;
49029;SDS011;43337;52.070;4.508;2023-06-14T05:18:18;7.32;;;2.10;;
49029;SDS011;43337;52.070;4.508;2023-06-14T05:20:44;10.25;;;2.58;;
49029;SDS011;43337;52.070;4.508;2023-06-14T05:23:11;10.18;;;2.53;;
49029;SDS011;43337;52.070;4.508;2023-06-14T05:25:40;6.68;;;2.50;;
49029;SDS011;43337;52.070;4.508;2023-06-14T05:28:07;8.48;;;2.70;;
49029;SDS011;43337;52.070;4.508;2023-06-14T05:30:33;6.65;;;2.10;;
49029;SDS011;43337;52.070;4.508;2023-06-14T05:32:58;6.80;;;2.28;;
49029;SDS011;43337;52.070;4.508;2023-06-14T05:35:23;8.07;;;2.10;;
49029;SDS011;43337;52.070;4.508;2023-06-14T05:37:51;6.50;;;2.47;;
49029;SDS011;43337;52.070;4.508;2023-06-14T05:40:17;4.07;;;2.35;;
49029;SDS011;43337;52.070;4.508;2023-06-14T05:42:42;7.95;;;2.85;;
49029;SDS011;43337;52.070;4.508;2023-06-14T05:45:08;8.70;;;2.38;;
49029;SDS011;43337;52.070;4.508;2023-06-14T05:47:33;8.70;;;2.60;;
49029;SDS011;43337;52.070;4.508;2023-06-14T05:49:59;5.63;;;2.25;;
49029;SDS011;43337;52.070;4.508;2023-06-14T05:52:24;5.90;;;1.95;;
49029;SDS011;43337;52.070;4.508;2023-06-14T05:54:50;7.97;;;2.63;;
49029;SDS011;43337;52.070;4.508;2023-06-14T05:57:15;6.07;;;1.75;;
49029;SDS011;43337;52.070;4.508;2023-06-14T05:59:41;4.35;;;1.95;;
49029;SDS011;43337;52.070;4.508;2023-06-14T06:02:06;5.80;;;2.30;;
49029;SDS011;43337;52.070;4.508;2023-06-14T06:04:31;5.20;;;2.30;;
49029;SDS011;43337;52.070;4.508;2023-06-14T06:06:57;6.90;;;2.60;;
49029;SDS011;43337;52.070;4.508;2023-06-14T06:09:22;9.85;;;2.75;;
49029;SDS011;43337;52.070;4.508;2023-06-14T06:11:48;6.82;;;2.17;;
49029;SDS011;43337;52.070;4.508;2023-06-14T06:14:13;8.50;;;2.30;;
49029;SDS011;43337;52.070;4.508;2023-06-14T06:16:38;5.20;;;2.50;;
49029;SDS011;43337;52.070;4.508;2023-06-14T06:19:04;4.35;;;2.15;;
49029;SDS011;43337;52.070;4.508;2023-06-14T06:21:29;5.82;;;2.85;;
49029;SDS011;43337;52.070;4.508;2023-06-14T06:23:54;60.72;;;6.85;;
49029;SDS011;43337;52.070;4.508;2023-06-14T06:26:21;4.75;;;2.40;;
49029;SDS011;43337;52.070;4.508;2023-06-14T06:28:47;9.95;;;3.38;;
49029;SDS011;43337;52.070;4.508;2023-06-14T06:31:12;7.88;;;2.50;;
49029;SDS011;43337;52.070;4.508;2023-06-14T06:33:38;8.05;;;2.67;;
49029;SDS011;43337;52.070;4.508;2023-06-14T06:36:04;6.10;;;2.20;;
49029;SDS011;43337;52.070;4.508;2023-06-14T06:38:30;9.15;;;2.55;;
49029;SDS011;43337;52.070;4.508;2023-06-14T06:40:55;6.10;;;2.47;;
49029;SDS011;43337;52.070;4.508;2023-06-14T06:43:21;5.47;;;2.45;;
49029;SDS011;43337;52.070;4.508;2023-06-14T06:45:47;8.55;;;2.42;;
49029;SDS011;43337;52.070;4.508;2023-06-14T06:48:12;8.93;;;2.50;;
49029;SDS011;43337;52.070;4.508;2023-06-14T06:50:38;6.20;;;2.30;;
49029;SDS011;43337;52.070;4.508;2023-06-14T06:53:04;5.63;;;2.50;;
49029;SDS011;43337;52.070;4.508;2023-06-14T06:55:30;5.97;;;2.30;;
49029;SDS011;43337;52.070;4.508;2023-06-14T06:57:55;6.05;;;2.45;;
49029;SDS011;43337;52.070;4.508;2023-06-14T07:00:21;5.85;;;2.40;;
49029;SDS011;43337;52.070;4.508;2023-06-14T07:02:46;5.15;;;2.33;;
49029;SDS011;43337;52.070;4.508;2023-06-14T07:05:12;13.63;;;2.80;;
49029;SDS011;43337;52.070;4.508;2023-06-14T07:07:38;7.53;;;2.50;;
49029;SDS011;43337;52.070;4.508;2023-06-14T07:10:03;5.07;;;2.40;;
49029;SDS011;43337;52.070;4.508;2023-06-14T07:12:30;7.20;;;2.40;;
49029;SDS011;43337;52.070;4.508;2023-06-14T07:14:58;6.05;;;2.10;;
49029;SDS011;43337;52.070;4.508;2023-06-14T07:17:24;7.55;;;2.55;;
49029;SDS011;43337;52.070;4.508;2023-06-14T07:19:50;8.20;;;2.33;;
49029;SDS011;43337;52.070;4.508;2023-06-14T07:22:16;8.10;;;2.67;;
49029;SDS011;43337;52.070;4.508;2023-06-14T07:24:41;9.48;;;2.50;;
49029;SDS011;43337;52.070;4.508;2023-06-14T07:27:07;6.38;;;2.40;;
49029;SDS011;43337;52.070;4.508;2023-06-14T07:29:32;4.53;;;2.67;;
49029;SDS011;43337;52.070;4.508;2023-06-14T07:31:58;7.32;;;2.60;;
49029;SDS011;43337;52.070;4.508;2023-06-14T07:34:23;9.50;;;2.95;;
49029;SDS011;43337;52.070;4.508;2023-06-14T07:36:49;8.32;;;2.80;;
49029;SDS011;43337;52.070;4.508;2023-06-14T07:39:14;7.93;;;2.53;;
49029;SDS011;43337;52.070;4.508;2023-06-14T07:41:40;5.45;;;2.90;;
49029;SDS011;43337;52.070;4.508;2023-06-14T07:44:05;6.60;;;2.40;;
49029;SDS011;43337;52.070;4.508;2023-06-14T07:46:31;8.10;;;2.72;;
49029;SDS011;43337;52.070;4.508;2023-06-14T07:48:56;8.80;;;3.00;;
49029;SDS011;43337;52.070;4.508;2023-06-14T07:51:22;5.97;;;2.50;;
49029;SDS011;43337;52.070;4.508;2023-06-14T07:53:48;11.38;;;2.58;;
49029;SDS011;43337;52.070;4.508;2023-06-14T07:56:13;5.55;;;2.30;;
49029;SDS011;43337;52.070;4.508;2023-06-14T07:58:39;4.85;;;2.42;;
49029;SDS011;43337;52.070;4.508;2023-06-14T08:01:04;7.97;;;2.85;;
49029;SDS011;43337;52.070;4.508;2023-06-14T08:03:31;12.35;;;2.50;;
49029;SDS011;43337;52.070;4.508;2023-06-14T08:05:57;6.80;;;2.50;;
49029;SDS011;43337;52.070;4.508;2023-06-14T08:08:23;8.23;;;2.78;;
49029;SDS011;43337;52.070;4.508;2023-06-14T08:10:48;5.00;;;2.28;;
49029;SDS011;43337;52.070;4.508;2023-06-14T08:13:14;7.07;;;2.67;;
49029;SDS011;43337;52.070;4.508;2023-06-14T08:15:39;9.90;;;2.67;;
49029;SDS011;43337;52.070;4.508;2023-06-14T08:18:05;6.45;;;2.50;;
49029;SDS011;43337;52.070;4.508;2023-06-14T08:20:30;4.75;;;2.40;;
49029;SDS011;43337;52.070;4.508;2023-06-14T08:22:57;6.93;;;2.40;;
49029;SDS011;43337;52.070;4.508;2023-06-14T08:25:23;7.30;;;2.75;;
49029;SDS011;43337;52.070;4.508;2023-06-14T08:27:48;6.70;;;2.33;;
49029;SDS011;43337;52.070;4.508;2023-06-14T08:30:15;10.25;;;3.17;;
49029;SDS011;43337;52.070;4.508;2023-06-14T08:32:40;5.80;;;2.70;;
49029;SDS011;43337;52.070;4.508;2023-06-14T08:35:06;9.98;;;3.20;;
49029;SDS011;43337;52.070;4.508;2023-06-14T08:37:32;9.80;;;3.53;;
49029;SDS011;43337;52.070;4.508;2023-06-14T08:40:00;9.32;;;2.42;;
49029;SDS011;43337;52.070;4.508;2023-06-14T08:42:26;8.38;;;2.40;;
49029;SDS011;43337;52.070;4.508;2023-06-14T08:44:51;6.05;;;2.90;;
49029;SDS011;43337;52.070;4.508;2023-06-14T08:47:16;6.55;;;2.53;;
49029;SDS011;43337;52.070;4.508;2023-06-14T08:49:45;6.88;;;2.60;;
49029;SDS011;43337;52.070;4.508;2023-06-14T08:52:12;6.25;;;2.10;;
49029;SDS011;43337;52.070;4.508;2023-06-14T08:54:40;8.48;;;2.72;;
49029;SDS011;43337;52.070;4.508;2023-06-14T08:57:10;6.57;;;2.72;;
49029;SDS011;43337;52.070;4.508;2023-06-14T08:59:40;6.88;;;2.42;;
49029;SDS011;43337;52.070;4.508;2023-06-14T09:02:11;6.60;;;2.78;;
49029;SDS011;43337;52.070;4.508;2023-06-14T09:04:39;5.35;;;2.30;;
49029;SDS011;43337;52.070;4.508;2023-06-14T09:07:05;6.22;;;2.78;;
49029;SDS011;43337;52.070;4.508;2023-06-14T09:09:31;4.47;;;2.20;;
49029;SDS011;43337;52.070;4.508;2023-06-14T09:11:57;5.57;;;2.22;;
49029;SDS011;43337;52.070;4.508;2023-06-14T09:14:25;6.75;;;2.40;;
49029;SDS011;43337;52.070;4.508;2023-06-14T09:16:54;5.88;;;2.25;;
49029;SDS011;43337;52.070;4.508;2023-06-14T09:19:25;7.57;;;2.50;;
49029;SDS011;43337;52.070;4.508;2023-06-14T09:21:52;7.93;;;3.08;;
49029;SDS011;43337;52.070;4.508;2023-06-14T09:24:18;6.43;;;2.28;;
49029;SDS011;43337;52.070;4.508;2023-06-14T09:26:44;7.90;;;2.58;;
49029;SDS011;43337;52.070;4.508;2023-06-14T09:29:12;8.02;;;2.20;;
49029;SDS011;43337;52.070;4.508;2023-06-14T09:31:37;5.22;;;2.33;;
49029;SDS011;43337;52.070;4.508;2023-06-14T09:34:03;4.22;;;2.22;;
49029;SDS011;43337;52.070;4.508;2023-06-14T09:36:30;3.85;;;2.10;;
49029;SDS011;43337;52.070;4.508;2023-06-14T09:38:57;4.90;;;2.42;;
49029;SDS011;43337;52.070;4.508;2023-06-14T09:41:33;5.10;;;2.20;;
49029;SDS011;43337;52.070;4.508;2023-06-14T09:44:06;4.22;;;2.25;;
49029;SDS011;43337;52.070;4.508;2023-06-14T09:46:33;6.53;;;2.17;;
49029;SDS011;43337;52.070;4.508;2023-06-14T09:48:59;5.57;;;2.20;;
49029;SDS011;43337;52.070;4.508;2023-06-14T09:51:26;5.03;;;2.15;;
49029;SDS011;43337;52.070;4.508;2023-06-14T09:53:53;6.93;;;2.15;;
49029;SDS011;43337;52.070;4.508;2023-06-14T09:56:27;8.45;;;1.80;;
49029;SDS011;43337;52.070;4.508;2023-06-14T09:58:55;4.85;;;1.95;;
49029;SDS011;43337;52.070;4.508;2023-06-14T10:01:22;5.53;;;2.00;;
49029;SDS011;43337;52.070;4.508;2023-06-14T10:03:50;6.80;;;2.38;;
49029;SDS011;43337;52.070;4.508;2023-06-14T10:06:20;4.82;;;1.75;;
49029;SDS011;43337;52.070;4.508;2023-06-14T10:08:49;3.40;;;1.90;;
49029;SDS011;43337;52.070;4.508;2023-06-14T10:11:17;4.25;;;1.70;;
49029;SDS011;43337;52.070;4.508;2023-06-14T10:13:42;4.78;;;1.65;;
49029;SDS011;43337;52.070;4.508;2023-06-14T10:16:10;3.97;;;1.88;;
49029;SDS011;43337;52.070;4.508;2023-06-14T10:18:45;6.65;;;2.40;;
49029;SDS011;43337;52.070;4.508;2023-06-14T10:23:58;6.85;;;2.38;;
49029;SDS011;43337;52.070;4.508;2023-06-14T10:26:28;4.28;;;1.70;;
49029;SDS011;43337;52.070;4.508;2023-06-14T10:29:00;4.50;;;2.00;;
49029;SDS011;43337;52.070;4.508;2023-06-14T10:31:48;6.18;;;1.90;;
49029;SDS011;43337;52.070;4.508;2023-06-14T10:34:25;3.05;;;1.58;;
49029;SDS011;43337;52.070;4.508;2023-06-14T10:39:30;3.85;;;1.60;;
49029;SDS011;43337;52.070;4.508;2023-06-14T10:41:57;5.20;;;1.50;;
49029;SDS011;43337;52.070;4.508;2023-06-14T10:46:54;3.30;;;1.40;;
49029;SDS011;43337;52.070;4.508;2023-06-14T10:49:36;5.00;;;1.67;;
49029;SDS011;43337;52.070;4.508;2023-06-14T10:52:09;7.07;;;1.80;;
49029;SDS011;43337;52.070;4.508;2023-06-14T10:57:26;3.80;;;1.50;;
49029;SDS011;43337;52.070;4.508;2023-06-14T10:59:52;4.68;;;1.85;;
49029;SDS011;43337;52.070;4.508;2023-06-14T11:04:51;4.05;;;1.17;;
49029;SDS011;43337;52.070;4.508;2023-06-14T11:12:51;6.65;;;1.55;;
49029;SDS011;43337;52.070;4.508;2023-06-14T11:15:19;2.72;;;1.00;;
49029;SDS011;43337;52.070;4.508;2023-06-14T11:17:51;4.75;;;1.23;;
49029;SDS011;43337;52.070;4.508;2023-06-14T11:20:18;3.58;;;1.33;;
49029;SDS011;43337;52.070;4.508;2023-06-14T11:22:44;3.85;;;1.38;;
49029;SDS011;43337;52.070;4.508;2023-06-14T11:25:13;2.63;;;1.27;;
49029;SDS011;43337;52.070;4.508;2023-06-14T11:27:43;3.35;;;1.30;;
49029;SDS011;43337;52.070;4.508;2023-06-14T11:30:09;3.00;;;1.00;;
49029;SDS011;43337;52.070;4.508;2023-06-14T11:32:35;4.35;;;1.40;;
49029;SDS011;43337;52.070;4.508;2023-06-14T11:35:02;4.90;;;1.27;;
49029;SDS011;43337;52.070;4.508;2023-06-14T11:37:29;4.13;;;1.25;;
49029;SDS011;43337;52.070;4.508;2023-06-14T11:39:56;9.18;;;1.52;;
49029;SDS011;43337;52.070;4.508;2023-06-14T11:42:22;4.10;;;1.23;;
49029;SDS011;43337;52.070;4.508;2023-06-14T11:44:49;3.72;;;1.20;;
49029;SDS011;43337;52.070;4.508;2023-06-14T11:47:14;2.95;;;1.25;;
49029;SDS011;43337;52.070;4.508;2023-06-14T11:49:40;3.97;;;1.20;;
49029;SDS011;43337;52.070;4.508;2023-06-14T11:52:06;3.22;;;1.40;;
49029;SDS011;43337;52.070;4.508;2023-06-14T11:54:32;3.22;;;1.20;;
49029;SDS011;43337;52.070;4.508;2023-06-14T11:56:58;3.25;;;1.40;;
49029;SDS011;43337;52.070;4.508;2023-06-14T11:59:24;2.70;;;1.20;;
49029;SDS011;43337;52.070;4.508;2023-06-14T12:01:50;3.05;;;1.13;;
49029;SDS011;43337;52.070;4.508;2023-06-14T12:04:28;6.88;;;1.45;;
49029;SDS011;43337;52.070;4.508;2023-06-14T12:06:54;3.83;;;1.10;;
49029;SDS011;43337;52.070;4.508;2023-06-14T12:09:21;4.50;;;1.23;;
49029;SDS011;43337;52.070;4.508;2023-06-14T12:11:51;3.33;;;1.00;;
49029;SDS011;43337;52.070;4.508;2023-06-14T12:14:30;2.20;;;1.08;;
49029;SDS011;43337;52.070;4.508;2023-06-14T12:17:03;2.15;;;1.25;;
49029;SDS011;43337;52.070;4.508;2023-06-14T12:19:31;2.47;;;1.00;;
49029;SDS011;43337;52.070;4.508;2023-06-14T12:21:57;2.97;;;1.20;;
49029;SDS011;43337;52.070;4.508;2023-06-14T12:24:27;5.97;;;1.20;;
49029;SDS011;43337;52.070;4.508;2023-06-14T12:26:53;4.45;;;1.30;;
49029;SDS011;43337;52.070;4.508;2023-06-14T12:29:19;3.17;;;1.10;;
49029;SDS011;43337;52.070;4.508;2023-06-14T12:31:44;5.88;;;1.63;;
49029;SDS011;43337;52.070;4.508;2023-06-14T12:34:10;2.55;;;1.20;;
49029;SDS011;43337;52.070;4.508;2023-06-14T12:36:35;7.70;;;1.20;;
49029;SDS011;43337;52.070;4.508;2023-06-14T12:39:06;3.45;;;1.33;;
49029;SDS011;43337;52.070;4.508;2023-06-14T12:41:33;9.00;;;1.42;;
49029;SDS011;43337;52.070;4.508;2023-06-14T12:43:58;2.42;;;1.10;;
49029;SDS011;43337;52.070;4.508;2023-06-14T12:46:24;3.65;;;1.35;;
49029;SDS011;43337;52.070;4.508;2023-06-14T12:48:50;3.83;;;1.30;;
49029;SDS011;43337;52.070;4.508;2023-06-14T12:51:16;3.05;;;1.10;;
49029;SDS011;43337;52.070;4.508;2023-06-14T12:53:41;2.90;;;1.30;;
49029;SDS011;43337;52.070;4.508;2023-06-14T12:56:07;2.50;;;1.10;;
49029;SDS011;43337;52.070;4.508;2023-06-14T12:58:32;4.20;;;1.60;;
49029;SDS011;43337;52.070;4.508;2023-06-14T13:00:57;3.38;;;1.55;;
49029;SDS011;43337;52.070;4.508;2023-06-14T13:03:23;2.97;;;1.45;;
49029;SDS011;43337;52.070;4.508;2023-06-14T13:05:48;2.55;;;1.20;;
49029;SDS011;43337;52.070;4.508;2023-06-14T13:08:14;2.80;;;1.23;;
49029;SDS011;43337;52.070;4.508;2023-06-14T13:10:39;11.43;;;5.25;;
49029;SDS011;43337;52.070;4.508;2023-06-14T13:13:04;3.70;;;1.80;;
49029;SDS011;43337;52.070;4.508;2023-06-14T13:15:30;8.02;;;2.60;;
49029;SDS011;43337;52.070;4.508;2023-06-14T13:17:55;3.85;;;1.50;;
49029;SDS011;43337;52.070;4.508;2023-06-14T13:20:20;2.78;;;1.10;;
49029;SDS011;43337;52.070;4.508;2023-06-14T13:22:46;3.78;;;1.15;;
49029;SDS011;43337;52.070;4.508;2023-06-14T13:25:11;4.78;;;1.40;;
49029;SDS011;43337;52.070;4.508;2023-06-14T13:27:37;5.00;;;1.30;;
49029;SDS011;43337;52.070;4.508;2023-06-14T13:30:03;3.08;;;1.00;;
49029;SDS011;43337;52.070;4.508;2023-06-14T13:32:30;2.83;;;1.15;;
49029;SDS011;43337;52.070;4.508;2023-06-14T13:34:55;4.57;;;1.48;;
49029;SDS011;43337;52.070;4.508;2023-06-14T13:37:21;6.38;;;1.30;;
49029;SDS011;43337;52.070;4.508;2023-06-14T13:39:46;2.85;;;1.40;;
49029;SDS011;43337;52.070;4.508;2023-06-14T13:42:13;2.22;;;1.20;;
49029;SDS011;43337;52.070;4.508;2023-06-14T13:44:38;3.78;;;1.00;;
49029;SDS011;43337;52.070;4.508;2023-06-14T13:47:04;4.32;;;1.20;;
49029;SDS011;43337;52.070;4.508;2023-06-14T13:49:30;3.38;;;1.30;;
49029;SDS011;43337;52.070;4.508;2023-06-14T13:51:55;2.78;;;1.20;;
49029;SDS011;43337;52.070;4.508;2023-06-14T13:54:21;3.17;;;1.20;;
49029;SDS011;43337;52.070;4.508;2023-06-14T13:56:47;3.97;;;1.33;;
49029;SDS011;43337;52.070;4.508;2023-06-14T13:59:12;2.65;;;1.40;;
49029;SDS011;43337;52.070;4.508;2023-06-14T14:01:38;4.63;;;1.55;;
49029;SDS011;43337;52.070;4.508;2023-06-14T14:04:03;4.40;;;1.40;;
49029;SDS011;43337;52.070;4.508;2023-06-14T14:06:29;5.53;;;1.38;;
49029;SDS011;43337;52.070;4.508;2023-06-14T14:08:55;3.47;;;1.38;;
49029;SDS011;43337;52.070;4.508;2023-06-14T14:11:21;4.72;;;1.20;;
49029;SDS011;43337;52.070;4.508;2023-06-14T14:13:47;3.88;;;1.17;;
49029;SDS011;43337;52.070;4.508;2023-06-14T14:16:12;5.43;;;1.60;;
49029;SDS011;43337;52.070;4.508;2023-06-14T14:18:38;4.95;;;1.20;;
49029;SDS011;43337;52.070;4.508;2023-06-14T14:21:03;3.63;;;1.15;;
49029;SDS011;43337;52.070;4.508;2023-06-14T14:23:29;3.67;;;1.40;;
49029;SDS011;43337;52.070;4.508;2023-06-14T14:25:54;4.80;;;1.33;;
49029;SDS011;43337;52.070;4.508;2023-06-14T14:28:20;3.75;;;1.20;;
49029;SDS011;43337;52.070;4.508;2023-06-14T14:30:46;3.83;;;1.13;;
49029;SDS011;43337;52.070;4.508;2023-06-14T14:33:12;3.20;;;1.35;;
49029;SDS011;43337;52.070;4.508;2023-06-14T14:35:45;2.83;;;1.25;;
49029;SDS011;43337;52.070;4.508;2023-06-14T14:38:13;3.45;;;1.00;;
49029;SDS011;43337;52.070;4.508;2023-06-14T14:40:40;3.42;;;1.42;;
49029;SDS011;43337;52.070;4.508;2023-06-14T14:43:07;4.15;;;1.05;;
49029;SDS011;43337;52.070;4.508;2023-06-14T14:45:32;4.15;;;1.50;;
49029;SDS011;43337;52.070;4.508;2023-06-14T14:47:57;3.88;;;1.40;;
49029;SDS011;43337;52.070;4.508;2023-06-14T14:50:24;2.97;;;1.20;;
49029;SDS011;43337;52.070;4.508;2023-06-14T14:52:50;3.53;;;1.30;;
49029;SDS011;43337;52.070;4.508;2023-06-14T14:55:15;2.67;;;1.10;;
49029;SDS011;43337;52.070;4.508;2023-06-14T14:57:41;3.33;;;1.33;;
49029;SDS011;43337;52.070;4.508;2023-06-14T15:00:06;4.15;;;1.15;;
49029;SDS011;43337;52.070;4.508;2023-06-14T15:02:33;2.63;;;1.27;;
49029;SDS011;43337;52.070;4.508;2023-06-14T15:04:58;2.90;;;1.30;;
49029;SDS011;43337;52.070;4.508;2023-06-14T15:07:26;3.05;;;1.20;;
49029;SDS011;43337;52.070;4.508;2023-06-14T15:09:52;2.35;;;1.30;;